Time;durP1;ratioP1;P1;durP2;ratioP2;P2;SDS_P1;SDS_P2;PMS_P1;PMS_P2;Temp;Humidity;BMP_temperature;BMP_pressure;BME280_temperature;BME280_humidity;BME280_pressure;Samples;Min_cycle;Max_cycle;Signal;HPM_P1;HPM_P2
2022/01/22 00:00:09;;;;;;;2.97;1.48;;;0.20;99.50;;;;;;5024373;28;20117;-82
2022/01/22 00:02:34;;;;;;;5.50;1.60;;;0.20;99.60;;;;;;5022901;28;20037;-83
2022/01/22 00:05:00;;;;;;;3.13;1.58;;;0.20;99.70;;;;;;5023128;28;20153;-83
2022/01/22 00:07:26;;;;;;;5.05;1.80;;;0.20;99.50;;;;;;5021609;28;20026;-83
2022/01/22 00:09:58;;;;;;;8.27;2.00;;;0.20;99.20;;;;;;5018717;28;20030;-83
2022/01/22 00:15:03;;;;;;;2.97;1.77;;;0.20;98.60;;;;;;5028203;28;20022;-83
2022/01/22 00:17:29;;;;;;;4.20;1.90;;;0.20;98.70;;;;;;5028816;28;20086;-82
2022/01/22 00:19:55;;;;;;;6.35;1.77;;;0.20;98.60;;;;;;5030813;28;20038;-83
2022/01/22 00:22:25;;;;;;;3.55;1.48;;;0.30;98.40;;;;;;5030078;28;20044;-82
2022/01/22 00:24:56;;;;;;;3.58;1.65;;;0.20;98.20;;;;;;5023631;28;20322;-82
2022/01/22 00:27:22;;;;;;;4.60;1.75;;;0.20;98.20;;;;;;5025969;28;20041;-82
2022/01/22 00:29:48;;;;;;;4.05;1.50;;;0.30;98.00;;;;;;5024928;28;20042;-83
2022/01/22 00:32:17;;;;;;;7.97;2.17;;;0.30;97.90;;;;;;5024129;28;20053;-84
2022/01/22 00:34:43;;;;;;;7.45;2.33;;;0.30;97.60;;;;;;5012471;28;20120;-83
2022/01/22 00:37:09;;;;;;;8.27;1.95;;;0.30;97.20;;;;;;5011655;28;20046;-83
2022/01/22 00:39:35;;;;;;;3.78;2.00;;;0.30;97.70;;;;;;5019371;28;20026;-83
2022/01/22 00:42:04;;;;;;;7.38;1.92;;;0.30;97.70;;;;;;5012131;28;20468;-83
2022/01/22 00:44:29;;;;;;;9.35;1.67;;;0.40;97.60;;;;;;5011735;28;20046;-84
2022/01/22 00:46:55;;;;;;;3.00;1.67;;;0.40;96.80;;;;;;4993506;28;20411;-83
2022/01/22 00:49:21;;;;;;;4.43;1.73;;;0.40;96.90;;;;;;4994734;28;20037;-83
2022/01/22 00:51:47;;;;;;;4.45;1.55;;;0.40;97.00;;;;;;5006972;28;20113;-82
2022/01/22 00:54:13;;;;;;;6.07;1.40;;;0.40;96.90;;;;;;5004587;28;20054;-83
2022/01/22 00:56:38;;;;;;;5.68;1.77;;;0.40;96.60;;;;;;5011608;28;20030;-83
2022/01/22 00:59:04;;;;;;;3.33;1.75;;;0.40;96.60;;;;;;5012493;28;20133;-82
2022/01/22 01:01:30;;;;;;;4.72;1.60;;;0.40;96.30;;;;;;4985810;28;20023;-81
2022/01/22 01:04:02;;;;;;;5.35;1.40;;;0.40;96.20;;;;;;5001977;28;20035;-82
2022/01/22 01:06:27;;;;;;;5.95;1.40;;;0.50;96.20;;;;;;4999827;28;20494;-82
2022/01/22 01:08:53;;;;;;;5.38;1.75;;;0.50;96.00;;;;;;4995593;28;20034;-82
2022/01/22 01:11:20;;;;;;;3.80;1.73;;;0.50;96.30;;;;;;4986415;28;20026;-82
2022/01/22 01:13:49;;;;;;;2.50;1.42;;;0.50;96.00;;;;;;5001491;28;20057;-82
2022/01/22 01:16:43;;;;;;;3.67;1.30;;;0.50;95.80;;;;;;5002888;28;20019;-82
2022/01/22 01:35:25;;;;;;;7.03;1.58;;;0.60;94.70;;;;;;5008331;28;20022;-83
2022/01/22 01:37:53;;;;;;;6.25;1.70;;;0.60;94.50;;;;;;5009124;28;20049;-83
2022/01/22 01:40:21;;;;;;;2.47;1.20;;;0.70;94.10;;;;;;5014359;28;20046;-82
2022/01/22 01:43:25;;;;;;;4.97;1.48;;;0.70;93.90;;;;;;5003178;28;20026;-83
2022/01/22 01:45:39;;;;;;;6.67;1.67;;;0.70;93.60;;;;;;4998706;28;20038;-83
2022/01/22 01:48:11;;;;;;;4.90;2.25;;;0.70;93.80;;;;;;5003677;28;20396;-83
2022/01/22 01:50:39;;;;;;;4.03;1.13;;;0.70;93.80;;;;;;5002933;28;20053;-83
2022/01/22 01:55:50;;;;;;;2.83;1.50;;;0.80;93.30;;;;;;5003426;28;20117;-83
2022/01/22 01:58:17;;;;;;;6.90;1.13;;;0.80;93.20;;;;;;5002276;28;20030;-83
2022/01/22 02:00:44;;;;;;;6.72;1.30;;;0.80;93.30;;;;;;5002662;28;20037;-83
2022/01/22 02:03:12;;;;;;;4.97;1.40;;;0.80;93.20;;;;;;4984991;28;20114;-83
2022/01/22 02:05:38;;;;;;;7.20;1.10;;;0.80;93.30;;;;;;5002245;28;20049;-83
2022/01/22 02:08:05;;;;;;;5.50;1.02;;;0.80;93.20;;;;;;5008600;28;20018;-83
2022/01/22 02:10:35;;;;;;;3.22;1.13;;;0.90;93.00;;;;;;4993012;28;20050;-83
2022/01/22 02:24:00;;;;;;;1.60;0.93;;;1.00;92.90;;;;;;5001476;28;20366;-83
2022/01/22 02:26:30;;;;;;;1.20;0.90;;;0.90;92.80;;;;;;5003293;28;20451;-83
2022/01/22 02:28:56;;;;;;;3.70;1.02;;;0.90;93.40;;;;;;4998293;28;20026;-83
2022/01/22 02:36:59;;;;;;;2.97;0.77;;;0.90;93.60;;;;;;4999469;28;20041;-82
2022/01/22 02:39:35;;;;;;;3.38;0.90;;;0.90;94.00;;;;;;5016020;28;20386;-82
2022/01/22 02:42:01;;;;;;;1.65;0.60;;;0.90;94.50;;;;;;5018945;28;20026;-84
2022/01/22 02:44:35;;;;;;;1.58;0.90;;;0.90;94.80;;;;;;5019179;28;20024;-82
2022/01/22 02:47:06;;;;;;;1.80;1.02;;;0.90;94.50;;;;;;5019287;28;20033;-83
2022/01/22 02:49:32;;;;;;;4.05;1.17;;;1.00;94.00;;;;;;5018888;28;20030;-84
2022/01/22 02:51:59;;;;;;;3.15;0.80;;;1.00;94.10;;;;;;5000660;28;20022;-82
2022/01/22 02:54:25;;;;;;;4.57;0.90;;;1.00;93.80;;;;;;5024202;28;20029;-81
2022/01/22 02:56:50;;;;;;;1.95;0.80;;;1.10;93.70;;;;;;5027698;28;20036;-84
2022/01/22 02:59:21;;;;;;;0.80;0.70;;;1.00;94.00;;;;;;5025635;28;20250;-81
2022/01/22 03:01:47;;;;;;;2.03;0.80;;;1.10;94.10;;;;;;5025319;28;20025;-84
2022/01/22 03:04:12;;;;;;;1.30;0.90;;;1.10;93.90;;;;;;5006719;28;20022;-81
2022/01/22 03:06:38;;;;;;;2.00;0.98;;;1.10;93.80;;;;;;5034396;28;20042;-86
2022/01/22 03:09:07;;;;;;;1.73;0.70;;;1.10;94.00;;;;;;5036507;28;20042;-85
2022/01/22 03:11:42;;;;;;;5.55;1.40;;;1.10;93.90;;;;;;5036061;28;20022;-83
2022/01/22 03:17:24;;;;;;;1.42;0.75;;;1.20;94.00;;;;;;5018554;28;20114;-83
2022/01/22 03:22:26;;;;;;;1.75;1.08;;;1.10;94.60;;;;;;5017266;28;20045;-84
2022/01/22 03:27:36;;;;;;;4.70;1.10;;;1.10;94.80;;;;;;5017697;28;20079;-85
2022/01/22 03:30:04;;;;;;;6.65;1.17;;;1.10;95.10;;;;;;5017985;28;20018;-83
2022/01/22 03:32:36;;;;;;;1.58;1.17;;;1.20;94.80;;;;;;5001611;28;20022;-84
2022/01/22 03:35:26;;;;;;;1.73;0.93;;;1.20;94.80;;;;;;5018741;28;20033;-83
2022/01/22 03:37:56;;;;;;;1.80;0.93;;;1.20;95.00;;;;;;4999984;28;20034;-82
2022/01/22 03:40:25;;;;;;;2.50;1.27;;;1.20;95.50;;;;;;5000486;28;20026;-83
2022/01/22 03:42:52;;;;;;;2.80;1.02;;;1.10;96.10;;;;;;4998230;28;20175;-84
2022/01/22 03:45:19;;;;;;;5.85;1.00;;;1.10;96.60;;;;;;4997715;28;20041;-83
2022/01/22 03:47:45;;;;;;;5.53;1.50;;;1.10;96.60;;;;;;5000354;28;20027;-83
2022/01/22 03:50:13;;;;;;;3.58;1.45;;;1.00;97.30;;;;;;4981741;28;20026;-84
2022/01/22 03:52:39;;;;;;;1.35;0.90;;;1.00;97.90;;;;;;4998717;28;20153;-83
2022/01/22 03:55:08;;;;;;;3.35;1.38;;;1.00;98.00;;;;;;4998309;28;20030;-84
2022/01/22 03:57:34;;;;;;;5.07;1.25;;;1.00;98.40;;;;;;4980506;28;20029;-84
2022/01/22 04:00:01;;;;;;;5.53;1.38;;;0.90;98.70;;;;;;4999921;28;20050;-84
2022/01/22 04:05:11;;;;;;;3.55;1.52;;;0.90;99.30;;;;;;5003825;28;20041;-83
2022/01/22 04:10:08;;;;;;;4.47;2.15;;;0.90;99.90;;;;;;5009335;28;20037;-83
2022/01/22 04:13:00;;;;;;;2.03;1.45;;;0.90;99.90;;;;;;5020996;28;20030;-85
2022/01/22 04:15:28;;;;;;;4.63;1.98;;;0.80;99.90;;;;;;5019287;28;20088;-84
2022/01/22 04:26:20;;;;;;;4.57;1.52;;;0.60;99.90;;;;;;5035972;28;20053;-83
2022/01/22 04:28:49;;;;;;;2.08;1.67;;;0.70;99.90;;;;;;5038908;28;20026;-85
2022/01/22 04:31:15;;;;;;;3.63;2.08;;;0.70;99.90;;;;;;5015869;28;20026;-83
2022/01/22 04:33:41;;;;;;;4.40;2.10;;;0.60;99.90;;;;;;5008143;28;20033;-84
2022/01/22 04:36:07;;;;;;;3.97;1.90;;;0.60;99.90;;;;;;5005818;28;20399;-83
2022/01/22 04:38:33;;;;;;;4.63;2.33;;;0.60;99.90;;;;;;5014142;28;20033;-83
2022/01/22 04:41:00;;;;;;;4.03;2.67;;;0.60;99.90;;;;;;5020975;28;20062;-83
2022/01/22 04:43:27;;;;;;;4.78;1.90;;;0.50;99.90;;;;;;5024294;28;20022;-81
2022/01/22 04:46:07;;;;;;;4.35;1.92;;;0.50;99.90;;;;;;5022878;28;20104;-82
2022/01/22 04:48:51;;;;;;;3.67;2.17;;;0.60;99.90;;;;;;5002167;28;20030;-84
2022/01/22 04:56:47;;;;;;;6.22;2.42;;;0.60;99.90;;;;;;5020767;28;20040;-85
2022/01/22 04:59:13;;;;;;;5.50;2.75;;;0.60;99.90;;;;;;5019273;28;20030;-85
2022/01/22 05:01:39;;;;;;;5.07;2.42;;;0.60;99.90;;;;;;5019463;28;20045;-83
2022/01/22 05:04:05;;;;;;;3.42;2.20;;;0.60;99.90;;;;;;5019905;28;20022;-83
2022/01/22 05:06:31;;;;;;;3.00;2.60;;;0.60;99.90;;;;;;5020614;28;20026;-83
2022/01/22 05:08:59;;;;;;;6.70;2.67;;;0.60;99.90;;;;;;5020127;28;20026;-83
2022/01/22 05:11:25;;;;;;;2.85;1.90;;;0.70;99.90;;;;;;5000442;28;20084;-84
2022/01/22 05:13:51;;;;;;;5.28;2.35;;;0.70;99.90;;;;;;4984658;28;20030;-84
2022/01/22 05:16:18;;;;;;;6.55;2.60;;;0.70;99.90;;;;;;4999442;28;20037;-84
2022/01/22 05:19:32;;;;;;;4.05;1.88;;;0.70;99.90;;;;;;4999043;28;20057;-83
2022/01/22 05:21:34;;;;;;;4.70;2.45;;;0.70;99.90;;;;;;4997933;28;20070;-84
2022/01/22 05:24:04;;;;;;;4.50;2.45;;;0.70;99.90;;;;;;4981840;28;20062;-84
2022/01/22 05:37:05;;;;;;;5.68;2.70;;;0.80;99.90;;;;;;4999399;28;20518;-82
2022/01/22 05:39:32;;;;;;;6.10;2.95;;;0.80;99.90;;;;;;4989184;28;20034;-83
2022/01/22 05:42:00;;;;;;;6.07;2.83;;;0.70;99.90;;;;;;4995987;28;20028;-83
2022/01/22 05:44:27;;;;;;;5.13;3.10;;;0.70;99.90;;;;;;5000123;28;20028;-83
2022/01/22 05:46:56;;;;;;;5.68;3.97;;;0.70;99.90;;;;;;5017067;28;20025;-84
2022/01/22 05:49:24;;;;;;;5.85;3.28;;;0.70;99.90;;;;;;5021730;28;20022;-84
2022/01/22 05:51:52;;;;;;;8.90;3.22;;;0.70;99.90;;;;;;5019791;28;20048;-82
2022/01/22 05:59:51;;;;;;;4.70;2.83;;;0.70;99.90;;;;;;5018219;28;20052;-83
2022/01/22 06:02:18;;;;;;;5.78;3.10;;;0.70;99.90;;;;;;5018910;28;20033;-83
2022/01/22 06:04:45;;;;;;;5.57;3.53;;;0.60;99.90;;;;;;5018620;28;20064;-83
2022/01/22 06:07:12;;;;;;;7.65;3.50;;;0.60;99.90;;;;;;5018463;28;20021;-84
2022/01/22 06:09:44;;;;;;;8.70;3.92;;;0.70;99.90;;;;;;5000129;28;20041;-83
2022/01/22 06:14:36;;;;;;;6.93;3.28;;;0.60;99.90;;;;;;5020770;28;20065;-83
2022/01/22 06:17:02;;;;;;;5.15;3.17;;;0.60;99.90;;;;;;5006045;28;20029;-83
2022/01/22 06:19:28;;;;;;;10.70;3.53;;;0.60;99.90;;;;;;5020314;28;20500;-87
2022/01/22 06:21:54;;;;;;;6.95;3.60;;;0.60;99.90;;;;;;5020702;28;20082;-84
2022/01/22 06:24:21;;;;;;;6.75;3.50;;;0.60;99.90;;;;;;5018455;28;20383;-83
2022/01/22 06:26:49;;;;;;;4.43;3.20;;;0.60;99.90;;;;;;5018743;28;20120;-83
2022/01/22 06:29:15;;;;;;;6.15;3.92;;;0.60;99.90;;;;;;5003609;28;20049;-82
2022/01/22 06:31:41;;;;;;;9.20;4.50;;;0.60;99.90;;;;;;5002692;28;20093;-81
2022/01/22 06:34:07;;;;;;;7.03;3.63;;;0.70;99.90;;;;;;5019512;28;20080;-84
2022/01/22 06:36:34;;;;;;;8.57;4.45;;;0.70;99.90;;;;;;5018803;28;20459;-82
2022/01/22 06:39:16;;;;;;;9.93;4.65;;;0.70;99.90;;;;;;5004987;28;20026;-83
2022/01/22 06:41:46;;;;;;;5.70;3.55;;;0.70;99.90;;;;;;5012100;28;20069;-82
2022/01/22 06:44:20;;;;;;;6.60;3.95;;;0.70;99.90;;;;;;5022023;28;20026;-83
2022/01/22 06:46:49;;;;;;;9.07;4.50;;;0.60;99.90;;;;;;5024582;28;20033;-82
2022/01/22 06:49:15;;;;;;;8.60;4.68;;;0.70;99.90;;;;;;5022452;28;20205;-84
2022/01/22 06:51:42;;;;;;;7.25;3.85;;;0.70;99.90;;;;;;5019948;28;20096;-83
2022/01/22 06:54:10;;;;;;;6.65;4.43;;;0.70;99.90;;;;;;5004553;28;20026;-83
2022/01/22 06:56:36;;;;;;;6.35;3.95;;;0.80;99.90;;;;;;5020909;28;20022;-83
2022/01/22 06:59:03;;;;;;;9.13;5.03;;;0.80;99.90;;;;;;5012388;28;20036;-86
2022/01/22 07:01:29;;;;;;;6.30;4.35;;;0.80;99.90;;;;;;5036359;28;20018;-82
2022/01/22 07:03:56;;;;;;;8.00;4.32;;;0.80;99.90;;;;;;5027991;28;20108;-83
2022/01/22 07:06:22;;;;;;;7.95;4.75;;;0.90;99.90;;;;;;5021118;28;20029;-83
2022/01/22 07:08:49;;;;;;;6.97;4.65;;;0.90;99.90;;;;;;5023719;28;20040;-84
2022/01/22 07:11:15;;;;;;;8.60;4.50;;;0.80;99.90;;;;;;5005370;28;20113;-83
2022/01/22 07:13:41;;;;;;;7.03;4.60;;;0.80;99.90;;;;;;5003928;28;20019;-83
2022/01/22 07:16:07;;;;;;;8.35;5.40;;;0.90;99.90;;;;;;4982467;28;20041;-83
2022/01/22 07:18:33;;;;;;;9.55;4.88;;;0.90;99.90;;;;;;4999816;28;20045;-84
2022/01/22 07:21:03;;;;;;;8.07;4.68;;;0.90;99.90;;;;;;4981499;28;20101;-85
2022/01/22 07:26:01;;;;;;;13.27;5.75;;;0.90;99.90;;;;;;5006000;28;20088;-86
2022/01/22 07:28:27;;;;;;;7.32;4.53;;;0.90;99.90;;;;;;5016923;28;20110;-87
2022/01/22 07:30:53;;;;;;;11.13;4.97;;;0.90;99.90;;;;;;4999413;28;20018;-85
2022/01/22 07:33:20;;;;;;;10.68;4.93;;;0.90;99.90;;;;;;5015251;28;20057;-84
2022/01/22 07:35:49;;;;;;;6.90;4.72;;;0.90;99.90;;;;;;5012993;28;20006;-83
2022/01/22 07:38:15;;;;;;;7.22;5.05;;;0.90;99.90;;;;;;4988593;28;20563;-84
2022/01/22 07:40:41;;;;;;;10.00;4.85;;;0.80;99.90;;;;;;5008757;28;20023;-84
2022/01/22 07:43:07;;;;;;;11.07;5.22;;;0.80;99.90;;;;;;5000760;28;20034;-85
2022/01/22 07:45:33;;;;;;;7.03;4.78;;;0.80;99.90;;;;;;5001707;28;20030;-84
2022/01/22 07:47:58;;;;;;;8.15;5.53;;;0.80;99.90;;;;;;5003821;28;20544;-82
2022/01/22 07:50:24;;;;;;;7.10;4.85;;;0.80;99.90;;;;;;4984635;28;20061;-84
2022/01/22 07:52:50;;;;;;;8.98;5.40;;;0.80;99.90;;;;;;5003786;28;20030;-83
2022/01/22 07:55:18;;;;;;;9.82;5.32;;;0.70;99.90;;;;;;4985617;28;20455;-84
2022/01/22 07:57:44;;;;;;;9.20;5.60;;;0.70;99.90;;;;;;4984432;28;20034;-83
2022/01/22 08:00:11;;;;;;;10.35;5.28;;;0.80;99.90;;;;;;5001394;28;20026;-83
2022/01/22 08:02:37;;;;;;;8.68;5.35;;;0.80;99.90;;;;;;4986103;28;20038;-83
2022/01/22 08:05:03;;;;;;;13.35;6.05;;;0.80;99.90;;;;;;5005365;28;20085;-82
2022/01/22 08:07:29;;;;;;;9.90;5.93;;;0.80;99.90;;;;;;4985224;28;20026;-86
2022/01/22 08:09:57;;;;;;;11.38;6.35;;;0.80;99.90;;;;;;5004506;28;20057;-85
2022/01/22 08:12:23;;;;;;;13.48;5.35;;;0.80;99.90;;;;;;5026155;28;20250;-83
2022/01/22 08:14:48;;;;;;;9.68;6.30;;;0.80;99.90;;;;;;5019869;28;20033;-81
2022/01/22 08:17:14;;;;;;;11.38;6.55;;;0.90;99.90;;;;;;5020276;28;20057;-85
2022/01/22 08:19:40;;;;;;;8.38;5.35;;;0.90;99.90;;;;;;5017550;28;20026;-83
2022/01/22 08:22:06;;;;;;;9.30;6.03;;;0.90;99.90;;;;;;5020190;28;20052;-84
2022/01/22 08:24:32;;;;;;;10.20;6.50;;;0.90;99.90;;;;;;5022824;28;20046;-83
2022/01/22 08:29:59;;;;;;;9.02;5.78;;;1.00;99.90;;;;;;4961312;29;20156;-83
2022/01/22 08:37:52;;;;;;;9.70;5.45;;;1.00;99.90;;;;;;5020468;28;20041;-82
2022/01/22 08:40:18;;;;;;;10.73;6.68;;;0.90;99.90;;;;;;5020027;28;20034;-83
2022/01/22 08:42:45;;;;;;;11.82;6.90;;;0.90;99.90;;;;;;5018261;28;20084;-82
2022/01/22 08:45:11;;;;;;;9.27;5.97;;;0.90;99.90;;;;;;5017149;28;20021;-82
2022/01/22 08:47:37;;;;;;;10.90;6.90;;;1.00;99.90;;;;;;5000910;28;20049;-82
2022/01/22 08:50:04;;;;;;;9.23;6.25;;;1.00;99.90;;;;;;5019055;28;20029;-82
2022/01/22 08:52:34;;;;;;;16.77;6.63;;;0.90;99.90;;;;;;5001815;28;20026;-84
2022/01/22 08:55:00;;;;;;;9.20;6.25;;;0.90;99.90;;;;;;5018198;28;20025;-85
2022/01/22 08:57:26;;;;;;;11.32;6.20;;;0.90;99.90;;;;;;5023877;28;20026;-82
2022/01/22 08:59:51;;;;;;;10.43;5.82;;;1.00;99.90;;;;;;5024366;28;20026;-84
2022/01/22 09:02:18;;;;;;;15.38;7.65;;;1.00;99.90;;;;;;5006942;28;20026;-83
2022/01/22 09:04:44;;;;;;;11.98;7.25;;;1.00;99.90;;;;;;5006791;28;20050;-83
2022/01/22 09:07:10;;;;;;;11.00;7.18;;;1.00;99.90;;;;;;5023079;28;20026;-83
2022/01/22 09:09:36;;;;;;;8.73;6.60;;;1.00;99.90;;;;;;5016851;28;20018;-84
2022/01/22 09:12:04;;;;;;;12.73;7.05;;;1.10;99.90;;;;;;5024541;28;20021;-82
2022/01/22 09:14:30;;;;;;;14.95;7.13;;;1.10;99.90;;;;;;5025527;28;20057;-83
2022/01/22 09:16:58;;;;;;;13.95;7.07;;;1.10;99.90;;;;;;5007467;28;20025;-82
2022/01/22 09:19:32;;;;;;;13.65;7.07;;;1.10;99.90;;;;;;5007224;28;20035;-84
2022/01/22 09:21:58;;;;;;;11.65;7.05;;;1.20;99.90;;;;;;5026374;28;20031;-84
2022/01/22 09:24:23;;;;;;;11.15;7.72;;;1.20;99.90;;;;;;5026484;28;20035;-83
2022/01/22 09:26:52;;;;;;;11.40;6.80;;;1.20;99.90;;;;;;5008914;28;20028;-84
2022/01/22 09:29:18;;;;;;;13.18;7.35;;;1.20;99.90;;;;;;5008634;28;20042;-84
2022/01/22 09:31:46;;;;;;;12.23;8.10;;;1.30;99.90;;;;;;5008461;28;20029;-84
2022/01/22 09:34:13;;;;;;;9.75;6.55;;;1.30;99.90;;;;;;5028351;28;20028;-84
2022/01/22 09:36:38;;;;;;;11.75;7.22;;;1.30;99.90;;;;;;5011758;28;20036;-84
2022/01/22 09:39:05;;;;;;;11.00;6.95;;;1.30;99.90;;;;;;5020394;28;20058;-83
2022/01/22 09:41:31;;;;;;;10.82;7.15;;;1.30;99.90;;;;;;4990465;28;20027;-84
2022/01/22 09:43:57;;;;;;;12.90;7.18;;;1.30;99.90;;;;;;4989870;28;20313;-83
2022/01/22 09:46:25;;;;;;;11.32;6.95;;;1.30;99.90;;;;;;5007733;28;20034;-85
2022/01/22 09:48:52;;;;;;;17.58;8.40;;;1.30;99.90;;;;;;4990025;28;20034;-84
2022/01/22 09:51:18;;;;;;;14.15;8.25;;;1.40;99.90;;;;;;5011603;28;20057;-82
2022/01/22 09:53:45;;;;;;;13.00;7.40;;;1.40;99.90;;;;;;5013636;28;20041;-83
2022/01/22 09:56:12;;;;;;;12.27;7.55;;;1.40;99.90;;;;;;4992653;28;20086;-83
2022/01/22 09:58:38;;;;;;;13.00;7.57;;;1.40;99.90;;;;;;4991091;28;20030;-82
2022/01/22 10:01:24;;;;;;;12.15;7.40;;;1.50;99.90;;;;;;5013806;28;20034;-84
2022/01/22 10:03:52;;;;;;;17.05;7.20;;;1.50;99.90;;;;;;5010581;28;20026;-85
2022/01/22 10:06:22;;;;;;;16.25;8.70;;;1.50;99.90;;;;;;4989753;28;20093;-86
2022/01/22 10:08:51;;;;;;;12.80;7.28;;;1.50;99.90;;;;;;5013776;28;20021;-84
2022/01/22 10:11:23;;;;;;;11.48;7.25;;;1.60;99.90;;;;;;5011590;28;20025;-86
2022/01/22 10:13:52;;;;;;;11.00;6.63;;;1.60;99.90;;;;;;5037252;28;20022;-86
2022/01/22 10:16:27;;;;;;;12.82;6.82;;;1.50;99.90;;;;;;5034767;28;20303;-84
2022/01/22 10:19:17;;;;;;;11.95;6.60;;;1.50;99.90;;;;;;5009716;28;20022;-85
2022/01/22 10:21:57;;;;;;;10.95;7.15;;;1.50;99.90;;;;;;5037187;28;20014;-85
2022/01/22 10:24:46;;;;;;;13.38;7.07;;;1.60;99.90;;;;;;5028399;28;20475;-84
2022/01/22 10:27:32;;;;;;;11.15;7.20;;;1.60;99.90;;;;;;5037052;28;20156;-85
2022/01/22 10:30:17;;;;;;;13.25;7.35;;;1.60;99.90;;;;;;5031431;28;20107;-83
2022/01/22 10:32:52;;;;;;;13.27;6.90;;;1.60;99.90;;;;;;5007934;28;20025;-84
2022/01/22 10:35:26;;;;;;;14.95;7.13;;;1.50;99.90;;;;;;5025846;28;20039;-83
2022/01/22 10:37:57;;;;;;;15.30;7.68;;;1.60;99.90;;;;;;5031148;28;20036;-84
2022/01/22 10:40:31;;;;;;;11.98;7.68;;;1.60;99.90;;;;;;4991994;28;20033;-84
2022/01/22 10:43:28;;;;;;;16.20;7.85;;;1.60;99.90;;;;;;5006506;28;20483;-86
2022/01/22 10:46:13;;;;;;;10.40;6.40;;;1.60;99.90;;;;;;5020722;28;20030;-84
2022/01/22 10:48:43;;;;;;;12.38;6.55;;;1.60;99.90;;;;;;5009377;28;20096;-84
2022/01/22 10:51:14;;;;;;;14.27;7.72;;;1.60;99.90;;;;;;5009267;28;20029;-82
2022/01/22 10:53:49;;;;;;;16.88;7.43;;;1.60;99.90;;;;;;5024216;28;20053;-84
2022/01/22 10:56:22;;;;;;;10.70;6.65;;;1.60;99.90;;;;;;5025263;28;20034;-84
2022/01/22 10:58:54;;;;;;;12.07;7.28;;;1.70;99.90;;;;;;5024342;28;20113;-85
2022/01/22 11:01:21;;;;;;;10.18;6.88;;;1.70;99.90;;;;;;5006225;28;20072;-84
2022/01/22 11:04:00;;;;;;;12.52;7.15;;;1.60;99.90;;;;;;5024664;28;20029;-85
2022/01/22 11:06:27;;;;;;;11.73;6.63;;;1.60;99.90;;;;;;5025131;28;20033;-85
2022/01/22 11:09:09;;;;;;;12.95;7.30;;;1.60;99.90;;;;;;5008224;28;20029;-82
2022/01/22 11:11:38;;;;;;;12.63;7.13;;;1.60;99.90;;;;;;5012037;28;20026;-84
2022/01/22 11:14:07;;;;;;;16.05;8.15;;;1.60;99.90;;;;;;5009986;28;20054;-84
2022/01/22 11:16:34;;;;;;;10.77;6.65;;;1.80;99.90;;;;;;5010890;28;20099;-84
2022/01/22 11:19:02;;;;;;;9.82;5.90;;;1.80;99.90;;;;;;5008799;28;20077;-82
2022/01/22 11:21:31;;;;;;;9.75;6.25;;;1.80;99.90;;;;;;5004143;28;20046;-84
2022/01/22 11:23:58;;;;;;;7.90;6.43;;;1.80;99.90;;;;;;5002643;28;20023;-84
2022/01/22 11:26:24;;;;;;;11.63;6.88;;;1.80;99.90;;;;;;5003416;28;20019;-83
2022/01/22 11:28:53;;;;;;;11.85;7.80;;;1.80;99.90;;;;;;5003392;28;20109;-84
2022/01/22 11:31:21;;;;;;;9.25;6.00;;;1.80;99.90;;;;;;5001492;28;20030;-83
2022/01/22 11:33:49;;;;;;;11.02;6.63;;;1.70;99.90;;;;;;5004700;28;20266;-84
2022/01/22 11:36:32;;;;;;;12.80;6.63;;;1.70;99.90;;;;;;5005602;28;20091;-84
2022/01/22 11:39:00;;;;;;;11.63;6.20;;;1.70;99.90;;;;;;5010479;28;20109;-84
2022/01/22 11:41:27;;;;;;;8.20;5.25;;;1.70;99.90;;;;;;4995921;28;20030;-83
2022/01/22 11:44:04;;;;;;;9.73;6.03;;;1.70;99.90;;;;;;4984168;28;20050;-83
2022/01/22 11:46:36;;;;;;;11.85;6.82;;;1.60;99.90;;;;;;4984045;28;20034;-83
2022/01/22 11:52:24;;;;;;;12.32;7.15;;;1.60;99.90;;;;;;4987427;28;20042;-84
2022/01/22 11:54:53;;;;;;;12.48;7.15;;;1.70;99.90;;;;;;4990721;28;20045;-83
2022/01/22 11:57:20;;;;;;;12.75;6.50;;;1.80;99.90;;;;;;5014726;28;20014;-83
2022/01/22 11:59:46;;;;;;;15.50;6.95;;;1.80;99.90;;;;;;5014874;28;20034;-85
2022/01/22 12:02:16;;;;;;;16.58;8.13;;;1.80;99.90;;;;;;4997121;28;20026;-84
2022/01/22 12:04:42;;;;;;;13.23;6.95;;;1.80;99.90;;;;;;5014375;28;20030;-83
2022/01/22 12:07:08;;;;;;;12.15;7.18;;;1.80;99.90;;;;;;5013780;28;20036;-85
2022/01/22 12:15:20;;;;;;;13.88;7.32;;;1.80;99.90;;;;;;5011296;28;20117;-86
2022/01/22 12:17:56;;;;;;;13.07;7.28;;;1.80;99.90;;;;;;5012458;28;20026;-82
2022/01/22 12:23:08;;;;;;;13.02;7.32;;;1.80;99.90;;;;;;5014843;28;20041;-84
2022/01/22 12:25:34;;;;;;;12.10;7.57;;;1.80;99.90;;;;;;5012990;28;20022;-84
2022/01/22 12:28:00;;;;;;;12.98;7.35;;;1.80;99.90;;;;;;5015528;28;20030;-84
2022/01/22 12:30:43;;;;;;;9.70;6.72;;;1.90;99.90;;;;;;5016932;28;20036;-85
2022/01/22 12:33:13;;;;;;;11.90;7.45;;;1.90;99.90;;;;;;5012256;28;20018;-84
2022/01/22 12:35:41;;;;;;;12.88;7.82;;;1.90;99.90;;;;;;5005317;28;20138;-85
2022/01/22 12:40:58;;;;;;;10.68;6.85;;;1.90;99.90;;;;;;5013811;28;20030;-84
2022/01/22 12:43:35;;;;;;;10.93;6.38;;;1.90;99.90;;;;;;4987303;28;20026;-82
2022/01/22 12:46:04;;;;;;;12.57;7.57;;;1.90;99.90;;;;;;4989319;28;20045;-84
2022/01/22 12:48:35;;;;;;;16.40;8.13;;;2.00;99.90;;;;;;5005855;28;20025;-86
2022/01/22 12:51:03;;;;;;;17.58;7.93;;;2.00;99.90;;;;;;4988428;28;20376;-85
2022/01/22 12:53:29;;;;;;;13.90;7.97;;;2.00;99.90;;;;;;5005302;28;20109;-84
2022/01/22 12:58:37;;;;;;;12.82;7.10;;;2.20;99.90;;;;;;5003704;28;20023;-83
2022/01/22 13:01:11;;;;;;;11.90;7.55;;;2.20;99.90;;;;;;5004482;28;20070;-83
2022/01/22 13:03:48;;;;;;;12.77;7.90;;;2.10;99.90;;;;;;4988080;28;20030;-84
2022/01/22 13:06:14;;;;;;;15.98;7.90;;;2.10;99.90;;;;;;5012862;28;20344;-83
2022/01/22 13:08:41;;;;;;;17.58;8.25;;;2.10;99.90;;;;;;5002744;28;20042;-84
2022/01/22 13:11:08;;;;;;;13.68;8.32;;;2.10;99.90;;;;;;5020509;28;20052;-84
2022/01/22 13:13:40;;;;;;;15.95;7.50;;;2.00;99.90;;;;;;5006876;28;20110;-84
2022/01/22 13:16:09;;;;;;;11.65;7.47;;;2.00;99.90;;;;;;5024560;28;20471;-83
2022/01/22 13:18:58;;;;;;;14.85;7.47;;;2.00;99.90;;;;;;5005921;28;20049;-83
2022/01/22 13:21:33;;;;;;;12.90;7.85;;;2.00;99.90;;;;;;5027641;28;20054;-83
2022/01/22 13:24:02;;;;;;;16.63;7.95;;;2.00;99.90;;;;;;5016072;28;20041;-84
2022/01/22 13:26:43;;;;;;;11.82;7.00;;;1.90;99.90;;;;;;5026080;28;20118;-84
2022/01/22 13:29:30;;;;;;;11.25;7.22;;;1.90;99.90;;;;;;5024011;28;20054;-84
2022/01/22 13:32:18;;;;;;;12.77;8.80;;;1.90;99.90;;;;;;5031903;28;20036;-85
2022/01/22 13:35:12;;;;;;;12.95;8.38;;;1.90;99.90;;;;;;5028071;28;20028;-83
2022/01/22 13:49:21;;;;;;;16.15;7.90;;;1.80;99.90;;;;;;5022681;28;20159;-81
2022/01/22 13:51:48;;;;;;;11.45;7.05;;;1.80;99.90;;;;;;5022757;28;20050;-82
2022/01/22 13:54:29;;;;;;;13.10;7.20;;;1.80;99.90;;;;;;5021701;28;20018;-81
2022/01/22 13:56:58;;;;;;;12.88;7.78;;;1.70;99.90;;;;;;5019956;28;20062;-81
2022/01/22 13:59:29;;;;;;;16.20;8.27;;;1.70;99.90;;;;;;5004494;28;20025;-81
2022/01/22 14:02:16;;;;;;;12.57;8.50;;;1.70;99.90;;;;;;5006017;28;20094;-83
2022/01/22 14:04:48;;;;;;;13.10;8.73;;;1.70;99.90;;;;;;5023412;28;20032;-83
2022/01/22 14:07:33;;;;;;;15.73;8.98;;;1.70;99.90;;;;;;5023807;28;20033;-82
2022/01/22 14:10:25;;;;;;;12.45;8.70;;;1.70;99.90;;;;;;4996150;28;20045;-81
2022/01/22 14:12:57;;;;;;;14.43;7.85;;;1.70;99.90;;;;;;5016990;28;20034;-81
2022/01/22 14:15:23;;;;;;;;;;;1.70;99.90;;;;;;5006359;28;20022;-79
2022/01/22 14:18:20;;;;;;;13.02;8.07;;;1.70;99.90;;;;;;5020516;28;19909;-82
2022/01/22 14:20:46;;;;;;;19.75;8.52;;;1.60;99.90;;;;;;5006011;28;20022;-83
2022/01/22 14:23:24;;;;;;;15.77;8.27;;;1.70;99.90;;;;;;5022420;28;20018;-79
2022/01/22 14:26:05;;;;;;;15.35;8.52;;;1.60;99.90;;;;;;5024167;28;20041;-82
2022/01/22 14:28:46;;;;;;;12.70;7.78;;;1.60;99.90;;;;;;5075092;22;20050;-83
2022/01/22 14:31:32;;;;;;;14.23;8.77;;;1.70;99.90;;;;;;5032185;28;20080;-84
2022/01/22 14:34:03;;;;;;;17.90;9.30;;;1.70;99.90;;;;;;5030763;28;20461;-84
2022/01/22 14:36:32;;;;;;;16.67;8.98;;;1.70;99.90;;;;;;5015479;28;20030;-83
2022/01/22 14:43:47;;;;;;;15.75;8.40;;;1.70;99.90;;;;;;5036315;28;20041;-83
2022/01/22 14:44:55;;;;;;;20.48;12.65;;;1.70;99.90;;;;;;5036508;28;20036;-88
2022/01/22 14:47:23;;;;;;;40.40;20.58;;;1.80;99.90;;;;;;5019211;28;20026;-84
2022/01/22 14:50:04;;;;;;;54.55;28.98;;;1.70;99.90;;;;;;5033763;28;20013;-84
2022/01/22 14:52:30;;;;;;;22.52;13.10;;;1.80;99.90;;;;;;5032743;28;20191;-84
2022/01/22 14:54:58;;;;;;;16.58;10.30;;;1.70;99.90;;;;;;5031501;28;20022;-84
2022/01/22 14:57:28;;;;;;;30.92;18.00;;;1.60;99.90;;;;;;5012529;28;20021;-83
2022/01/22 15:00:06;;;;;;;25.08;13.15;;;1.70;99.90;;;;;;5013252;28;20030;-84
2022/01/22 15:02:48;;;;;;;24.50;13.82;;;1.70;99.90;;;;;;5012823;28;20026;-82
2022/01/22 15:05:44;;;;;;;23.80;13.27;;;1.70;99.90;;;;;;5030628;28;20072;-83
2022/01/22 15:08:10;;;;;;;14.02;9.15;;;1.70;99.90;;;;;;5014249;28;20048;-83
2022/01/22 15:11:02;;;;;;;26.83;14.70;;;1.70;99.90;;;;;;5023226;28;20022;-84
2022/01/22 15:13:28;;;;;;;21.60;12.23;;;1.70;99.90;;;;;;5023872;28;20064;-83